Time;durP1;ratioP1;P1;durP2;ratioP2;P2;SDS_P1;SDS_P2;PMS_P1;PMS_P2;Temp;Humidity;BMP_temperature;BMP_pressure;BME280_temperature;BME280_humidity;BME280_pressure;Samples;Min_cycle;Max_cycle;Signal;HPM_P1;HPM_P2
2021/01/09 00:00:02;;;;;;;31.25;23.50;;;4.10;72.60;;;;;;5043725;28;20082;-76
2021/01/09 00:02:39;;;;;;;28.33;23.30;;;4.10;72.60;;;;;;5043800;28;20059;-76
2021/01/09 00:05:06;;;;;;;30.55;23.60;;;4.10;72.60;;;;;;5043163;28;20261;-77
2021/01/09 00:07:33;;;;;;;27.27;23.00;;;4.00;72.50;;;;;;5045535;28;20025;-77
2021/01/09 00:10:00;;;;;;;28.15;22.60;;;4.00;72.50;;;;;;5045768;28;20040;-76
2021/01/09 00:12:26;;;;;;;29.80;23.42;;;4.10;72.60;;;;;;5048824;28;20447;-76
2021/01/09 00:14:52;;;;;;;30.38;22.98;;;4.00;72.50;;;;;;5046932;28;20036;-76
2021/01/09 00:17:18;;;;;;;28.77;22.58;;;4.00;72.50;;;;;;5048278;28;20033;-77
2021/01/09 00:19:44;;;;;;;29.35;23.08;;;4.00;72.50;;;;;;5048154;28;20032;-76
2021/01/09 00:22:10;;;;;;;28.77;22.17;;;4.00;72.50;;;;;;5047347;28;20033;-76
2021/01/09 00:24:37;;;;;;;31.92;23.58;;;4.00;72.50;;;;;;5048095;28;20033;-77
2021/01/09 00:27:11;;;;;;;29.77;22.45;;;4.00;72.50;;;;;;5047999;28;20112;-77
2021/01/09 00:29:44;;;;;;;;;;;4.00;72.40;;;;;;5047780;28;20021;-76
2021/01/09 00:32:11;;;;;;;25.77;21.05;;;4.00;72.50;;;;;;5047909;28;19921;-76
2021/01/09 00:34:37;;;;;;;33.90;22.55;;;4.00;72.40;;;;;;5046631;28;20041;-75
2021/01/09 00:37:04;;;;;;;32.72;23.40;;;4.00;72.30;;;;;;5046437;28;20429;-76
2021/01/09 00:39:30;;;;;;;28.52;23.50;;;4.00;72.40;;;;;;5046273;28;20135;-76
2021/01/09 00:42:00;;;;;;;31.63;23.02;;;3.90;72.20;;;;;;5046066;28;20116;-76
2021/01/09 00:44:27;;;;;;;31.55;23.58;;;4.00;72.40;;;;;;5048666;28;20115;-76
2021/01/09 00:46:57;;;;;;;29.67;23.35;;;3.90;72.20;;;;;;5049028;28;20025;-76
2021/01/09 00:49:25;;;;;;;26.70;21.83;;;3.90;72.20;;;;;;5046592;28;20231;-76
2021/01/09 00:51:51;;;;;;;26.10;23.08;;;3.90;72.20;;;;;;5047336;28;20041;-76
2021/01/09 00:54:18;;;;;;;28.25;21.15;;;3.90;72.20;;;;;;5048473;28;20025;-76
2021/01/09 00:56:44;;;;;;;30.10;22.98;;;3.90;72.20;;;;;;5048368;28;20059;-76
2021/01/09 00:59:10;;;;;;;30.15;23.20;;;3.90;72.20;;;;;;5046015;28;20485;-76
2021/01/09 01:01:36;;;;;;;29.45;23.75;;;3.90;72.30;;;;;;5047432;28;20120;-76
2021/01/09 01:04:02;;;;;;;30.15;23.38;;;3.90;72.30;;;;;;5047048;28;20029;-77
2021/01/09 01:06:28;;;;;;;30.10;21.92;;;3.90;72.30;;;;;;5047286;28;20037;-75
2021/01/09 01:08:54;;;;;;;28.52;23.23;;;3.90;72.30;;;;;;5047049;28;20036;-76
2021/01/09 01:11:26;;;;;;;32.00;22.80;;;3.80;72.10;;;;;;5047806;28;20036;-76
2021/01/09 01:13:53;;;;;;;27.13;22.70;;;3.80;72.10;;;;;;5047202;28;20413;-76
2021/01/09 01:16:20;;;;;;;30.80;22.77;;;3.80;72.10;;;;;;5046920;28;20388;-76
2021/01/09 01:18:46;;;;;;;27.58;23.17;;;3.80;72.10;;;;;;5047323;28;20124;-77
2021/01/09 01:21:13;;;;;;;27.92;23.52;;;3.80;72.10;;;;;;5046713;28;20367;-76
2021/01/09 01:23:39;;;;;;;28.65;22.05;;;3.80;72.10;;;;;;5046037;28;20400;-77
2021/01/09 01:26:06;;;;;;;28.95;21.92;;;3.80;72.10;;;;;;5028818;28;20029;-77
2021/01/09 01:28:32;;;;;;;29.67;22.42;;;3.80;72.10;;;;;;5045357;28;20094;-76
2021/01/09 01:30:58;;;;;;;26.23;21.77;;;3.80;72.10;;;;;;5027858;28;20053;-76
2021/01/09 01:33:24;;;;;;;29.40;21.65;;;3.80;72.30;;;;;;5044160;28;20052;-76
2021/01/09 01:35:50;;;;;;;30.90;23.63;;;3.80;72.10;;;;;;5045884;28;20029;-76
2021/01/09 01:38:16;;;;;;;27.00;22.13;;;3.80;72.10;;;;;;5045614;28;20259;-76
2021/01/09 01:40:42;;;;;;;27.63;21.33;;;3.80;72.10;;;;;;5045233;28;20189;-77
2021/01/09 01:43:12;;;;;;;25.73;22.13;;;3.70;71.90;;;;;;5046573;28;20476;-76
2021/01/09 01:45:39;;;;;;;27.42;21.70;;;3.70;71.90;;;;;;5044745;28;20050;-76
2021/01/09 01:48:09;;;;;;;30.42;23.90;;;3.70;71.90;;;;;;5046371;28;20045;-75
2021/01/09 01:50:37;;;;;;;29.52;22.70;;;3.70;71.90;;;;;;5046395;28;20029;-77
2021/01/09 01:53:05;;;;;;;30.38;21.85;;;3.70;71.90;;;;;;5046042;28;20485;-76
2021/01/09 01:55:31;;;;;;;28.77;22.08;;;3.70;71.90;;;;;;5045994;28;20085;-76
2021/01/09 01:57:57;;;;;;;30.83;23.85;;;3.60;72.30;;;;;;5047011;28;20044;-77
2021/01/09 02:00:29;;;;;;;27.92;21.80;;;3.60;71.80;;;;;;5046049;28;20029;-77
2021/01/09 02:02:58;;;;;;;29.95;21.92;;;3.60;71.70;;;;;;5045473;28;20435;-77
2021/01/09 02:05:26;;;;;;;28.20;23.83;;;3.60;71.80;;;;;;5045590;28;20079;-79
2021/01/09 02:07:56;;;;;;;31.85;22.98;;;3.60;71.80;;;;;;5045638;28;20039;-79
2021/01/09 02:10:24;;;;;;;28.13;21.92;;;3.60;71.80;;;;;;5045669;28;20025;-77
2021/01/09 02:13:10;;;;;;;32.92;23.20;;;3.50;71.60;;;;;;5044477;28;20127;-78
2021/01/09 02:15:38;;;;;;;33.40;23.55;;;3.50;71.60;;;;;;5045832;28;20271;-78
2021/01/09 02:18:05;;;;;;;31.77;22.88;;;3.50;71.60;;;;;;5045435;28;20025;-77
2021/01/09 02:20:35;;;;;;;27.40;22.75;;;3.50;71.70;;;;;;5044110;28;20032;-77
2021/01/09 02:23:02;;;;;;;29.92;23.25;;;3.50;71.60;;;;;;5044071;28;20059;-77
2021/01/09 02:25:28;;;;;;;31.92;25.45;;;3.50;71.70;;;;;;5045170;28;20035;-77
2021/01/09 02:27:55;;;;;;;33.42;24.63;;;3.50;71.70;;;;;;5045690;28;20120;-78
2021/01/09 02:30:25;;;;;;;28.48;23.67;;;3.40;71.50;;;;;;5044890;28;20075;-76
2021/01/09 02:33:00;;;;;;;28.40;22.88;;;3.40;71.50;;;;;;5045581;28;20036;-78
2021/01/09 02:35:28;;;;;;;31.75;24.85;;;3.40;71.50;;;;;;5046655;28;20112;-78
2021/01/09 02:37:55;;;;;;;29.92;24.95;;;3.40;71.50;;;;;;5045423;28;20068;-77
2021/01/09 02:40:21;;;;;;;32.58;24.20;;;3.40;71.50;;;;;;5046345;28;20028;-77
2021/01/09 02:42:47;;;;;;;30.63;24.85;;;3.40;71.60;;;;;;5044915;28;20108;-76
2021/01/09 02:45:14;;;;;;;30.50;23.90;;;3.40;71.60;;;;;;5045624;28;20484;-77
2021/01/09 02:47:40;;;;;;;30.08;24.35;;;3.40;71.60;;;;;;5050333;28;20037;-76
2021/01/09 02:50:10;;;;;;;33.70;24.83;;;3.30;71.40;;;;;;5049533;28;20037;-78
2021/01/09 02:52:40;;;;;;;32.08;24.25;;;3.30;71.40;;;;;;5050231;28;20048;-78
2021/01/09 02:55:07;;;;;;;35.10;25.58;;;3.40;71.60;;;;;;5050270;28;20072;-78
2021/01/09 02:57:33;;;;;;;32.30;24.20;;;3.30;71.40;;;;;;5049138;28;20090;-78
2021/01/09 02:59:59;;;;;;;33.78;26.10;;;3.30;71.40;;;;;;5048153;28;20035;-77
2021/01/09 03:02:25;;;;;;;32.55;25.80;;;3.30;71.40;;;;;;5049752;28;20029;-76
2021/01/09 03:04:51;;;;;;;33.25;24.30;;;3.30;71.40;;;;;;5048037;28;20029;-76
2021/01/09 03:07:17;;;;;;;32.42;24.35;;;3.30;71.40;;;;;;5047994;28;20025;-78
2021/01/09 03:09:43;;;;;;;36.58;25.73;;;3.30;71.40;;;;;;5047913;28;20029;-77
2021/01/09 03:12:09;;;;;;;37.10;26.98;;;3.30;71.40;;;;;;5049622;28;20116;-77
2021/01/09 03:14:35;;;;;;;32.90;25.75;;;3.30;71.40;;;;;;5049333;28;20498;-78
2021/01/09 03:17:01;;;;;;;32.38;25.75;;;3.30;71.40;;;;;;5049570;28;20163;-77
2021/01/09 03:19:27;;;;;;;33.35;25.25;;;3.30;71.40;;;;;;5049217;28;20393;-77
2021/01/09 03:21:54;;;;;;;35.30;25.73;;;3.30;71.40;;;;;;5049250;28;20036;-77
2021/01/09 03:24:20;;;;;;;34.42;26.52;;;3.30;71.40;;;;;;5049637;28;20025;-77
2021/01/09 03:26:46;;;;;;;33.63;25.42;;;3.30;71.30;;;;;;5049128;28;20275;-78
2021/01/09 03:29:13;;;;;;;36.45;26.40;;;3.30;71.30;;;;;;5049073;28;20495;-77
2021/01/09 03:31:39;;;;;;;32.20;25.33;;;3.30;71.30;;;;;;5048022;28;20037;-77
2021/01/09 03:34:05;;;;;;;34.65;25.90;;;3.30;71.30;;;;;;5048901;28;20124;-76
2021/01/09 03:36:31;;;;;;;33.88;26.30;;;3.30;71.80;;;;;;5047321;28;20381;-78
2021/01/09 03:38:57;;;;;;;32.42;24.27;;;3.30;71.30;;;;;;5049266;28;20036;-77
2021/01/09 03:41:23;;;;;;;34.15;26.33;;;3.30;71.30;;;;;;5048982;28;20087;-76
2021/01/09 03:43:48;;;;;;;34.63;25.88;;;3.30;71.30;;;;;;5049063;28;20029;-76
2021/01/09 03:46:14;;;;;;;33.97;26.48;;;3.30;71.80;;;;;;5052100;28;20368;-77
2021/01/09 03:48:40;;;;;;;33.53;26.45;;;3.30;71.30;;;;;;5052990;28;20041;-78
2021/01/09 03:51:06;;;;;;;39.60;26.95;;;3.30;71.30;;;;;;5052796;28;20033;-77
2021/01/09 03:53:32;;;;;;;32.38;25.23;;;3.30;71.30;;;;;;5052841;28;20348;-76
2021/01/09 03:55:58;;;;;;;35.70;25.08;;;3.30;71.30;;;;;;5052925;28;20071;-78
2021/01/09 03:58:24;;;;;;;32.67;25.65;;;3.30;71.30;;;;;;5053340;28;20116;-77
2021/01/09 04:00:50;;;;;;;36.03;27.58;;;3.30;71.30;;;;;;5052642;28;20182;-76
2021/01/09 04:03:16;;;;;;;35.90;24.73;;;3.30;71.30;;;;;;5052904;28;20264;-78
2021/01/09 04:05:42;;;;;;;39.65;27.88;;;3.30;71.30;;;;;;5052223;28;20037;-78
2021/01/09 04:08:08;;;;;;;36.45;27.70;;;3.30;71.80;;;;;;5052348;28;20274;-78
2021/01/09 04:10:34;;;;;;;36.13;25.58;;;3.30;71.30;;;;;;5052772;28;20151;-77
2021/01/09 04:13:00;;;;;;;30.98;25.55;;;3.30;71.30;;;;;;5052837;28;20040;-79
2021/01/09 04:15:26;;;;;;;33.65;25.50;;;3.30;71.30;;;;;;5052383;28;20032;-76
2021/01/09 04:17:52;;;;;;;34.60;26.63;;;3.30;71.30;;;;;;5052790;28;20048;-77
2021/01/09 04:20:18;;;;;;;37.13;26.40;;;3.30;71.30;;;;;;5052246;28;20032;-76
2021/01/09 04:22:44;;;;;;;35.28;25.83;;;3.30;71.30;;;;;;5052646;28;20029;-76
2021/01/09 04:25:11;;;;;;;35.70;27.90;;;3.30;71.20;;;;;;5052281;28;20029;-76
2021/01/09 04:27:37;;;;;;;29.95;23.73;;;3.30;71.20;;;;;;5052191;28;20112;-76
2021/01/09 04:30:03;;;;;;;34.95;25.88;;;3.30;71.20;;;;;;5051972;28;20120;-78
2021/01/09 04:32:29;;;;;;;35.30;26.00;;;3.30;71.20;;;;;;5052424;28;20403;-76
2021/01/09 04:34:59;;;;;;;40.78;27.63;;;3.30;71.20;;;;;;5052174;28;20064;-77
2021/01/09 04:37:25;;;;;;;32.13;24.45;;;3.30;71.20;;;;;;5051562;28;20032;-78
2021/01/09 04:39:51;;;;;;;31.38;25.02;;;3.30;71.20;;;;;;5051761;28;20033;-77
2021/01/09 04:42:17;;;;;;;35.28;26.80;;;3.30;71.20;;;;;;5051995;28;20028;-78
2021/01/09 04:44:44;;;;;;;33.17;25.88;;;3.30;71.20;;;;;;5050862;28;20035;-78
2021/01/09 04:47:12;;;;;;;33.92;26.17;;;3.30;71.20;;;;;;5051505;28;20052;-76
2021/01/09 04:49:38;;;;;;;36.75;26.23;;;3.30;71.20;;;;;;5051977;28;20120;-78
2021/01/09 04:52:07;;;;;;;36.42;26.85;;;3.30;71.20;;;;;;5051468;28;20040;-77
2021/01/09 04:54:35;;;;;;;36.17;25.27;;;3.30;71.20;;;;;;5051277;28;20340;-76
2021/01/09 04:57:01;;;;;;;36.70;27.48;;;3.30;71.20;;;;;;5051580;28;20036;-76
2021/01/09 04:59:27;;;;;;;33.08;24.98;;;3.30;71.20;;;;;;5051682;28;20104;-77
2021/01/09 05:01:53;;;;;;;36.83;24.50;;;3.30;71.20;;;;;;5051449;28;20028;-77
2021/01/09 05:04:20;;;;;;;31.23;24.13;;;3.30;71.20;;;;;;5050053;28;20175;-75
2021/01/09 05:06:47;;;;;;;38.08;25.65;;;3.30;71.20;;;;;;5050778;28;20131;-77
2021/01/09 05:09:15;;;;;;;35.13;25.30;;;3.20;71.00;;;;;;5051628;28;20033;-77
2021/01/09 05:11:42;;;;;;;36.60;23.92;;;3.30;71.20;;;;;;5050144;28;20048;-77
2021/01/09 05:14:09;;;;;;;34.65;25.33;;;3.30;71.20;;;;;;5049980;28;20021;-77
2021/01/09 05:16:36;;;;;;;34.00;24.38;;;3.30;71.20;;;;;;5051431;28;20366;-76
2021/01/09 05:19:04;;;;;;;33.33;23.88;;;3.30;71.20;;;;;;5051191;28;20095;-78
2021/01/09 05:21:33;;;;;;;35.00;22.95;;;3.30;71.20;;;;;;5051010;28;20032;-79
2021/01/09 05:24:04;;;;;;;29.70;22.63;;;3.30;71.20;;;;;;5050254;28;20035;-78
2021/01/09 05:26:31;;;;;;;31.30;22.58;;;3.30;71.20;;;;;;5049796;28;20048;-78
2021/01/09 05:28:59;;;;;;;30.13;22.80;;;3.30;71.20;;;;;;5050636;28;20032;-77
2021/01/09 05:31:27;;;;;;;28.48;22.23;;;3.30;71.20;;;;;;5032613;28;20052;-77
2021/01/09 05:33:54;;;;;;;32.45;24.65;;;3.30;71.20;;;;;;5049660;28;20098;-78
2021/01/09 05:36:21;;;;;;;28.90;20.48;;;3.30;71.20;;;;;;5050831;28;20043;-78
2021/01/09 05:38:49;;;;;;;31.85;23.33;;;3.30;71.20;;;;;;5050342;28;20094;-78
2021/01/09 05:41:17;;;;;;;33.50;22.58;;;3.30;71.20;;;;;;5050962;28;20028;-78
2021/01/09 05:43:56;;;;;;;31.83;22.70;;;3.30;71.20;;;;;;5050358;28;20120;-78
2021/01/09 05:46:23;;;;;;;26.05;21.02;;;3.30;71.20;;;;;;5050832;28;20119;-79
2021/01/09 05:48:49;;;;;;;26.90;20.45;;;3.30;71.20;;;;;;5040433;28;20045;-79
2021/01/09 05:51:17;;;;;;;29.10;21.73;;;3.30;71.20;;;;;;5027334;28;20132;-78
2021/01/09 05:53:45;;;;;;;26.85;20.45;;;3.30;71.20;;;;;;5025876;28;20464;-79
2021/01/09 05:56:12;;;;;;;30.20;20.58;;;3.30;71.20;;;;;;5045550;28;20491;-79
2021/01/09 05:58:39;;;;;;;27.40;19.92;;;3.20;71.00;;;;;;5045274;28;20033;-79
2021/01/09 06:01:07;;;;;;;25.73;19.83;;;3.20;71.00;;;;;;5047347;28;20033;-79
2021/01/09 06:03:44;;;;;;;25.55;18.35;;;3.20;71.00;;;;;;5042979;28;20028;-78
2021/01/09 06:06:25;;;;;;;25.80;18.10;;;3.30;71.20;;;;;;5045975;28;20132;-78
2021/01/09 06:09:15;;;;;;;30.27;19.70;;;3.20;71.00;;;;;;5043984;28;20025;-79
2021/01/09 06:11:42;;;;;;;29.05;19.13;;;3.20;71.00;;;;;;5045602;28;20033;-78
2021/01/09 06:14:10;;;;;;;30.27;18.80;;;3.20;71.00;;;;;;5045218;28;20083;-78
2021/01/09 06:16:39;;;;;;;27.70;18.48;;;3.20;71.00;;;;;;5045111;28;20294;-79
2021/01/09 06:19:06;;;;;;;29.35;18.98;;;3.20;71.00;;;;;;5045467;28;20094;-77
2021/01/09 06:21:34;;;;;;;24.00;17.63;;;3.30;71.20;;;;;;5043675;28;20025;-77
2021/01/09 06:24:01;;;;;;;27.25;17.48;;;3.30;71.20;;;;;;5043591;28;20428;-77
2021/01/09 06:26:28;;;;;;;28.10;19.50;;;3.30;71.20;;;;;;5045496;28;20045;-76
2021/01/09 06:28:59;;;;;;;26.48;17.85;;;3.30;71.20;;;;;;5044744;28;20036;-76
2021/01/09 06:31:28;;;;;;;25.65;17.13;;;3.20;71.00;;;;;;5045025;28;20033;-75
2021/01/09 06:34:01;;;;;;;28.08;18.52;;;3.20;71.00;;;;;;5044495;28;20028;-77
2021/01/09 06:36:27;;;;;;;26.83;18.17;;;3.20;71.00;;;;;;5043237;28;20614;-77
2021/01/09 06:38:57;;;;;;;23.85;17.48;;;3.20;71.00;;;;;;5043122;28;20075;-76
2021/01/09 06:41:29;;;;;;;24.17;17.15;;;3.20;71.00;;;;;;5044913;28;20492;-77
2021/01/09 06:43:55;;;;;;;25.67;17.88;;;3.20;71.00;;;;;;5044788;28;20114;-78
2021/01/09 06:46:31;;;;;;;24.02;16.00;;;3.20;71.10;;;;;;5045159;28;20492;-76
2021/01/09 06:48:58;;;;;;;23.85;16.38;;;3.20;71.00;;;;;;5044737;28;20061;-80
2021/01/09 06:51:40;;;;;;;21.67;15.93;;;3.20;71.10;;;;;;5043829;28;20400;-76
2021/01/09 06:54:15;;;;;;;23.17;15.77;;;3.20;71.10;;;;;;5042799;28;20182;-77
2021/01/09 06:57:02;;;;;;;22.02;15.55;;;3.20;71.30;;;;;;5044228;28;20476;-77
2021/01/09 06:59:33;;;;;;;23.13;15.20;;;3.30;71.40;;;;;;5043722;28;20036;-76
2021/01/09 07:02:13;;;;;;;22.77;15.15;;;3.30;71.40;;;;;;5026003;28;20123;-77
2021/01/09 07:04:59;;;;;;;20.50;14.63;;;3.30;71.40;;;;;;5044145;28;20333;-76
2021/01/09 07:07:39;;;;;;;23.17;16.20;;;3.40;71.60;;;;;;5044266;28;20367;-76
2021/01/09 07:10:24;;;;;;;24.23;15.68;;;3.50;72.00;;;;;;5042690;28;20430;-78
2021/01/09 07:13:05;;;;;;;25.42;16.67;;;3.60;72.10;;;;;;5042006;28;20607;-78
2021/01/09 07:15:34;;;;;;;25.80;16.90;;;3.70;72.20;;;;;;5041396;28;20029;-76
2021/01/09 07:18:03;;;;;;;25.90;15.30;;;3.70;72.00;;;;;;5042687;28;20037;-77
2021/01/09 07:20:41;;;;;;;26.33;16.65;;;3.80;72.10;;;;;;5046391;28;20083;-80
2021/01/09 07:23:08;;;;;;;26.52;18.75;;;3.80;72.10;;;;;;5044974;28;20025;-80
2021/01/09 07:25:41;;;;;;;24.20;16.52;;;3.80;72.10;;;;;;5045083;28;20041;-83
2021/01/09 07:28:21;;;;;;;31.03;18.07;;;3.80;72.10;;;;;;5044517;28;20035;-82
2021/01/09 07:30:59;;;;;;;22.45;15.90;;;3.80;72.20;;;;;;5044615;28;20037;-76
2021/01/09 07:33:29;;;;;;;21.95;15.25;;;3.80;72.20;;;;;;5026189;28;20040;-75
2021/01/09 07:35:56;;;;;;;23.70;16.33;;;3.80;72.30;;;;;;5043773;28;20091;-75
2021/01/09 07:38:22;;;;;;;25.50;15.32;;;3.80;72.20;;;;;;5043401;28;20055;-76
2021/01/09 07:40:54;;;;;;;25.45;15.88;;;3.80;72.20;;;;;;5026401;28;20110;-76
2021/01/09 07:43:34;;;;;;;21.80;15.45;;;3.80;72.20;;;;;;5042301;28;20630;-76
2021/01/09 07:46:01;;;;;;;21.58;14.55;;;3.70;72.10;;;;;;5025421;28;20033;-76
2021/01/09 07:48:34;;;;;;;23.13;14.15;;;3.80;72.30;;;;;;5025327;28;20141;-76
2021/01/09 07:51:00;;;;;;;23.55;14.95;;;3.70;72.10;;;;;;5041737;28;20060;-75
2021/01/09 07:53:27;;;;;;;22.67;13.90;;;3.70;72.10;;;;;;5043321;28;20484;-76
2021/01/09 07:55:54;;;;;;;22.98;12.88;;;3.70;72.20;;;;;;5043783;28;20140;-76
2021/01/09 07:58:42;;;;;;;22.10;15.27;;;3.70;72.20;;;;;;5042973;28;20124;-77
2021/01/09 08:01:08;;;;;;;22.13;13.57;;;3.70;72.20;;;;;;5043041;28;20025;-76
2021/01/09 08:03:34;;;;;;;26.05;13.55;;;3.70;72.20;;;;;;5043875;28;20068;-78
2021/01/09 08:06:00;;;;;;;21.98;12.38;;;3.70;72.40;;;;;;5043926;28;20040;-76
2021/01/09 08:08:26;;;;;;;19.50;11.82;;;3.60;72.30;;;;;;5044019;28;20104;-79
2021/01/09 08:10:52;;;;;;;17.27;12.43;;;3.70;72.50;;;;;;5043055;28;20514;-77
2021/01/09 08:13:22;;;;;;;18.42;12.00;;;3.70;72.50;;;;;;5043697;28;20045;-81
2021/01/09 08:15:48;;;;;;;21.98;12.77;;;3.70;72.40;;;;;;5043974;28;20349;-78
2021/01/09 08:18:14;;;;;;;16.30;11.85;;;3.70;72.40;;;;;;5044333;28;20025;-80
2021/01/09 08:20:40;;;;;;;19.45;13.38;;;3.80;72.60;;;;;;5042895;28;20029;-78
2021/01/09 08:23:08;;;;;;;19.45;12.02;;;3.80;72.50;;;;;;5044177;28;20031;-78
2021/01/09 08:25:39;;;;;;;19.50;12.77;;;3.80;72.50;;;;;;5041762;28;20404;-77
2021/01/09 08:28:06;;;;;;;20.63;13.07;;;3.70;72.40;;;;;;5042112;28;20103;-77
2021/01/09 08:30:34;;;;;;;18.38;12.30;;;3.70;72.40;;;;;;5043571;28;20190;-78
2021/01/09 08:33:16;;;;;;;23.33;13.27;;;3.80;72.60;;;;;;5048897;28;20136;-77
2021/01/09 08:35:45;;;;;;;24.10;13.57;;;3.80;72.70;;;;;;5028902;28;20679;-80
2021/01/09 08:38:11;;;;;;;30.98;15.48;;;3.80;72.80;;;;;;5045013;28;20480;-78
2021/01/09 08:40:37;;;;;;;22.80;14.13;;;3.80;72.90;;;;;;5045192;28;20090;-78
2021/01/09 08:43:05;;;;;;;24.05;13.70;;;3.90;73.00;;;;;;5046649;28;20280;-78
2021/01/09 08:45:34;;;;;;;21.75;12.48;;;3.90;73.00;;;;;;5012171;28;20341;-76
2021/01/09 08:48:02;;;;;;;21.85;13.70;;;3.90;72.90;;;;;;5040537;28;20080;-76
2021/01/09 08:50:34;;;;;;;23.98;12.70;;;4.00;73.10;;;;;;5060864;28;20132;-75
2021/01/09 08:53:04;;;;;;;25.48;13.50;;;4.00;73.00;;;;;;5044836;28;20511;-76
2021/01/09 08:55:31;;;;;;;22.38;12.23;;;3.90;72.80;;;;;;5045045;28;20025;-76
2021/01/09 08:58:00;;;;;;;22.63;13.73;;;4.00;73.00;;;;;;5043430;28;20410;-75
2021/01/09 09:00:27;;;;;;;18.58;12.75;;;4.00;73.00;;;;;;5044645;28;20036;-73
2021/01/09 09:02:55;;;;;;;23.17;12.98;;;4.00;73.00;;;;;;5046356;28;20039;-74
2021/01/09 09:05:26;;;;;;;19.10;11.80;;;4.00;73.10;;;;;;5045961;28;20035;-73
2021/01/09 09:07:55;;;;;;;20.48;13.45;;;3.90;72.90;;;;;;5045591;28;20033;-74
2021/01/09 09:10:24;;;;;;;22.35;12.00;;;4.00;73.10;;;;;;5046037;28;20036;-73
2021/01/09 09:12:51;;;;;;;17.55;11.95;;;4.00;73.10;;;;;;5044648;28;20139;-77
2021/01/09 09:15:28;;;;;;;19.58;12.18;;;4.00;73.10;;;;;;5045856;28;20079;-75
2021/01/09 09:17:55;;;;;;;18.13;12.68;;;4.00;73.10;;;;;;5046623;28;20140;-75
2021/01/09 09:20:24;;;;;;;21.27;11.38;;;4.00;73.10;;;;;;5044789;28;20025;-76
2021/01/09 09:22:52;;;;;;;21.20;11.05;;;4.00;73.60;;;;;;5046035;28;20410;-75
2021/01/09 09:25:25;;;;;;;19.27;11.95;;;4.00;73.10;;;;;;5046365;28;20150;-76
2021/01/09 09:28:02;;;;;;;19.93;12.23;;;4.00;73.10;;;;;;5043823;28;20319;-76
2021/01/09 09:30:28;;;;;;;19.02;12.30;;;4.00;73.10;;;;;;5043791;28;20035;-75
2021/01/09 09:32:54;;;;;;;19.85;12.48;;;4.00;73.10;;;;;;5046119;28;20033;-76
2021/01/09 09:35:25;;;;;;;20.00;12.00;;;4.00;73.10;;;;;;5045849;28;20029;-75
2021/01/09 09:37:53;;;;;;;19.33;12.02;;;4.00;73.10;;;;;;5045226;28;20025;-74
2021/01/09 09:40:30;;;;;;;17.95;11.27;;;4.10;73.20;;;;;;5045384;28;20086;-75
2021/01/09 09:43:19;;;;;;;17.48;11.93;;;4.10;73.30;;;;;;5045754;28;20029;-76
2021/01/09 09:45:59;;;;;;;17.92;11.25;;;4.10;73.20;;;;;;5046332;28;20025;-75
2021/01/09 09:48:32;;;;;;;23.90;12.05;;;4.10;73.20;;;;;;5045371;28;20147;-76
2021/01/09 09:51:03;;;;;;;19.90;12.30;;;4.10;73.20;;;;;;5045360;28;20511;-75
2021/01/09 09:53:29;;;;;;;18.50;11.45;;;4.20;73.30;;;;;;5045302;28;20476;-78
2021/01/09 09:56:12;;;;;;;18.42;11.90;;;4.20;73.30;;;;;;5045707;28;20107;-75
2021/01/09 09:58:38;;;;;;;20.33;12.20;;;4.20;73.30;;;;;;5045610;28;20063;-79
2021/01/09 10:01:17;;;;;;;17.42;11.90;;;4.30;73.40;;;;;;5045438;28;20033;-78
2021/01/09 10:03:43;;;;;;;16.33;12.27;;;4.30;73.40;;;;;;5045415;28;20537;-77
2021/01/09 10:06:09;;;;;;;21.13;12.73;;;4.40;73.50;;;;;;5045350;28;20092;-77
2021/01/09 10:08:35;;;;;;;19.45;12.18;;;4.40;73.50;;;;;;5043673;28;20029;-78
2021/01/09 10:11:02;;;;;;;17.13;11.60;;;4.40;73.50;;;;;;5045754;28;20060;-77
2021/01/09 10:13:29;;;;;;;20.88;11.80;;;4.50;73.60;;;;;;5043871;28;20047;-77
2021/01/09 10:15:56;;;;;;;14.38;10.77;;;4.50;73.60;;;;;;5045114;28;20036;-77
2021/01/09 10:18:23;;;;;;;15.68;11.05;;;4.50;73.50;;;;;;5027096;28;20041;-76
2021/01/09 10:20:49;;;;;;;20.73;12.05;;;4.60;73.60;;;;;;5043269;28;20457;-76
2021/01/09 10:23:15;;;;;;;19.95;13.02;;;4.60;73.60;;;;;;5044760;28;20172;-76
2021/01/09 10:25:41;;;;;;;18.95;12.55;;;4.60;73.60;;;;;;5044153;28;20425;-76
2021/01/09 10:28:07;;;;;;;17.63;11.30;;;4.70;73.70;;;;;;5043468;28;20040;-78
2021/01/09 10:30:33;;;;;;;19.80;12.25;;;4.80;73.80;;;;;;5042864;28;20365;-77
2021/01/09 10:32:59;;;;;;;19.90;11.88;;;4.80;73.80;;;;;;5046618;28;20049;-81
2021/01/09 10:35:25;;;;;;;20.02;11.80;;;4.80;73.70;;;;;;5029863;28;20033;-82
2021/01/09 10:37:51;;;;;;;15.85;11.70;;;4.90;74.30;;;;;;5043063;28;20035;-81
2021/01/09 10:40:17;;;;;;;25.75;13.07;;;5.10;74.60;;;;;;5043770;28;20116;-80
2021/01/09 10:42:43;;;;;;;19.23;11.60;;;5.20;74.70;;;;;;5044732;28;20037;-81
2021/01/09 10:45:13;;;;;;;17.45;11.85;;;5.30;74.80;;;;;;5043247;28;20083;-80
2021/01/09 10:47:38;;;;;;;15.90;11.23;;;5.40;74.90;;;;;;5042456;28;20052;-79
2021/01/09 10:50:05;;;;;;;19.30;11.90;;;5.50;75.00;;;;;;5042851;28;20021;-81
2021/01/09 10:52:31;;;;;;;16.73;10.93;;;5.50;75.00;;;;;;5026511;28;20429;-84
2021/01/09 10:54:57;;;;;;;17.77;11.48;;;5.50;74.90;;;;;;5045180;28;20029;-83
2021/01/09 10:57:23;;;;;;;16.58;12.45;;;5.60;75.00;;;;;;5043438;28;20475;-81
2021/01/09 10:59:49;;;;;;;17.08;11.13;;;5.60;74.90;;;;;;5045071;28;20032;-85
2021/01/09 11:02:17;;;;;;;17.48;11.07;;;5.70;75.10;;;;;;5046930;28;20033;-80
2021/01/09 11:04:44;;;;;;;16.30;10.48;;;5.70;75.00;;;;;;5045735;28;20106;-82
2021/01/09 11:07:10;;;;;;;16.42;11.70;;;5.70;75.00;;;;;;5044320;28;20025;-82
2021/01/09 11:09:36;;;;;;;14.25;11.52;;;5.80;75.10;;;;;;5045931;28;20025;-84
2021/01/09 11:12:02;;;;;;;15.43;11.48;;;5.80;75.10;;;;;;5047118;28;20048;-85
2021/01/09 11:14:28;;;;;;;14.27;10.38;;;5.80;75.10;;;;;;5047719;28;20277;-87
2021/01/09 11:16:55;;;;;;;15.35;10.82;;;5.80;75.20;;;;;;5048147;28;20040;-88
2021/01/09 11:19:22;;;;;;;17.58;11.32;;;5.90;75.40;;;;;;5030317;28;20025;-89
2021/01/09 11:21:48;;;;;;;14.57;10.05;;;5.90;75.40;;;;;;5029584;28;20036;-85
2021/01/09 11:24:14;;;;;;;15.43;10.63;;;6.00;75.50;;;;;;5028820;28;20029;-87
2021/01/09 11:26:40;;;;;;;15.90;11.27;;;6.00;75.40;;;;;;5045955;28;20156;-85
2021/01/09 11:29:06;;;;;;;14.50;10.68;;;6.10;75.50;;;;;;5029576;28;20032;-85
2021/01/09 11:31:32;;;;;;;16.80;10.95;;;6.20;75.50;;;;;;5045543;28;20531;-86
2021/01/09 11:33:58;;;;;;;15.38;12.48;;;6.20;75.40;;;;;;5045322;28;20209;-87
2021/01/09 11:36:24;;;;;;;16.98;11.32;;;6.20;75.40;;;;;;5044572;28;20099;-86
2021/01/09 11:38:50;;;;;;;15.02;10.57;;;6.30;75.50;;;;;;5045000;28;20033;-88
2021/01/09 11:41:17;;;;;;;15.32;12.25;;;6.30;75.40;;;;;;5028671;28;20425;-89
2021/01/09 11:43:43;;;;;;;16.95;11.63;;;6.20;75.20;;;;;;5045233;28;20618;-88
2021/01/09 11:46:13;;;;;;;27.35;12.45;;;6.30;75.30;;;;;;5046508;28;20063;-86
2021/01/09 11:48:42;;;;;;;14.55;11.30;;;6.30;75.20;;;;;;5028635;28;20136;-87
2021/01/09 11:51:08;;;;;;;16.95;10.90;;;6.40;75.30;;;;;;5033836;28;20037;-88
2021/01/09 11:53:36;;;;;;;15.93;11.73;;;6.30;75.10;;;;;;5051182;28;20033;-86
2021/01/09 11:56:04;;;;;;;15.00;10.70;;;6.40;75.20;;;;;;5048468;28;20037;-84
2021/01/09 11:58:30;;;;;;;17.98;12.07;;;6.40;75.20;;;;;;5046614;28;20033;-86
2021/01/09 12:00:56;;;;;;;16.27;12.30;;;6.40;75.20;;;;;;5045185;28;20036;-91
2021/01/09 12:03:22;;;;;;;15.90;11.27;;;6.40;75.10;;;;;;5044949;28;20037;-88
2021/01/09 12:05:48;;;;;;;20.13;11.68;;;6.40;75.00;;;;;;5047541;28;20020;-85
2021/01/09 12:08:14;;;;;;;14.48;11.32;;;6.50;75.10;;;;;;5030876;28;20033;-86
2021/01/09 12:10:43;;;;;;;17.42;12.70;;;6.50;75.00;;;;;;5047164;28;20117;-82
2021/01/09 12:13:09;;;;;;;16.35;10.90;;;6.50;75.00;;;;;;5047697;28;20053;-80
2021/01/09 12:15:36;;;;;;;16.27;12.82;;;6.50;74.90;;;;;;5047310;28;20206;-81
2021/01/09 12:18:02;;;;;;;17.55;12.88;;;6.60;75.10;;;;;;5048255;28;20136;-81
2021/01/09 12:20:28;;;;;;;12.95;10.93;;;6.60;75.00;;;;;;5047824;28;20057;-80
2021/01/09 12:22:54;;;;;;;14.65;11.50;;;6.60;74.90;;;;;;5046662;28;20060;-80
2021/01/09 12:25:20;;;;;;;15.82;11.93;;;6.60;74.80;;;;;;5046093;28;20036;-81
2021/01/09 12:27:46;;;;;;;16.77;12.73;;;6.70;74.90;;;;;;5030250;28;20082;-81
2021/01/09 12:30:13;;;;;;;13.70;12.27;;;6.70;74.80;;;;;;5046711;28;20036;-82
2021/01/09 12:32:39;;;;;;;16.83;11.68;;;6.70;74.80;;;;;;5048571;28;20110;-84
2021/01/09 12:35:06;;;;;;;14.75;12.13;;;6.70;74.80;;;;;;5046303;28;20041;-82
2021/01/09 12:37:32;;;;;;;15.27;11.93;;;6.70;74.70;;;;;;5030959;28;20314;-85
2021/01/09 12:39:58;;;;;;;13.40;11.02;;;6.80;74.80;;;;;;5031001;28;20091;-84
2021/01/09 12:42:24;;;;;;;13.95;11.95;;;6.80;74.70;;;;;;5032080;28;20154;-87